Terminal Aerodrome Forecast
Issued by NWS Portland, OR

Home | Current Version | Previous Version | Text Only | Print | Product List | Glossary On
Versions: 1 2 3 4 5 6 7 8 9 10 11 12 13 14 15 16 17 18
000
FTUS46 KPQR 231136
TAFTTD
TAF
KTTD 231136Z 2312/2412 VRB03KT P6SM SCT035 BKN045
      TEMPO 2315/2318 1/2SM FG
     FM232000 VRB03KT P6SM VCSH SCT010 SCT040=

USA.gov is the U.S. government's official web portal to all federal, state and local government web resources and services.